createdAt,value
2022-08-25T11:24:53.387Z,326.25
2022-08-25T11:25:53.361Z,320.63
2022-08-25T11:26:53.364Z,315.00
2022-08-25T11:27:53.360Z,315.00
2022-08-25T11:28:53.331Z,320.63
2022-08-25T11:29:53.321Z,326.25
2022-08-25T11:30:53.357Z,331.88
2022-08-25T11:31:53.895Z,337.50
2022-08-25T11:32:53.303Z,354.38
2022-08-25T11:33:53.291Z,371.25
2022-08-25T11:34:53.272Z,376.88
2022-08-25T11:35:53.271Z,376.88
2022-08-25T11:36:53.257Z,376.88
2022-08-25T11:37:53.265Z,371.25
2022-08-25T11:38:53.237Z,371.25
2022-08-25T11:39:53.266Z,376.88
2022-08-25T11:40:53.230Z,388.13
2022-08-25T11:41:53.219Z,393.75
2022-08-25T11:42:53.223Z,410.63
2022-08-25T11:43:53.190Z,410.63
2022-08-25T11:44:54.894Z,410.63
2022-08-25T11:45:54.542Z,410.63
2022-08-25T11:46:53.177Z,399.38
2022-08-25T11:47:53.179Z,399.38
2022-08-25T11:48:53.159Z,399.38
2022-08-25T11:49:53.155Z,393.75
2022-08-25T11:50:53.142Z,388.13
2022-08-25T11:51:53.133Z,371.25
2022-08-25T11:52:53.137Z,360.00
2022-08-25T11:53:53.116Z,348.75
2022-08-25T11:54:53.099Z,354.38
2022-08-25T11:55:53.092Z,360.00
2022-08-25T11:56:53.093Z,365.63
2022-08-25T11:57:53.727Z,365.63
2022-08-25T11:58:53.062Z,365.63
2022-08-25T11:59:53.069Z,360.00
2022-08-25T12:00:53.050Z,365.63
2022-08-25T12:01:53.049Z,371.25
2022-08-25T12:02:53.048Z,382.50
2022-08-25T12:03:53.133Z,376.88
2022-08-25T12:04:53.162Z,365.63
2022-08-25T12:05:53.005Z,371.25
2022-08-25T12:06:53.006Z,376.88
2022-08-25T12:07:52.999Z,371.25
2022-08-25T12:08:52.981Z,360.00
2022-08-25T12:09:52.972Z,354.38
2022-08-25T12:10:52.966Z,354.38
2022-08-25T12:11:52.966Z,354.38
2022-08-25T12:12:52.966Z,354.38
2022-08-25T12:13:52.944Z,354.38
2022-08-25T12:14:52.941Z,354.38
2022-08-25T12:15:52.929Z,354.38
2022-08-25T12:16:52.943Z,354.38
2022-08-25T12:17:52.928Z,354.38
2022-08-25T12:18:52.918Z,354.38
2022-08-25T12:19:52.897Z,354.38
2022-08-25T12:20:52.891Z,354.38
2022-08-25T12:21:52.882Z,354.38
2022-08-25T12:22:52.895Z,354.38
2022-08-25T12:23:53.368Z,354.38
2022-08-25T12:24:52.871Z,360.00
2022-08-25T12:25:52.863Z,360.00
2022-08-25T12:26:52.844Z,365.63
2022-08-25T12:27:52.836Z,365.63
2022-08-25T12:28:52.849Z,365.63
2022-08-25T12:29:52.822Z,360.00
2022-08-25T12:30:52.890Z,365.63
2022-08-25T12:31:52.810Z,365.63
2022-08-25T12:32:52.800Z,365.63
2022-08-25T12:33:52.816Z,365.63
2022-08-25T12:34:52.795Z,376.88
2022-08-25T12:35:52.777Z,371.25
2022-08-25T12:36:52.770Z,371.25
2022-08-25T12:37:52.762Z,382.50
2022-08-25T12:38:52.767Z,371.25
2022-08-25T12:39:52.787Z,371.25
2022-08-25T12:40:52.749Z,376.88
2022-08-25T12:41:52.777Z,376.88
2022-08-25T12:42:52.735Z,376.88
2022-08-25T12:43:52.728Z,376.88
2022-08-25T12:44:52.710Z,382.50
2022-08-25T12:45:53.101Z,382.50
2022-08-25T12:46:52.700Z,382.50
2022-08-25T12:47:52.683Z,388.13
2022-08-25T12:48:52.691Z,388.13
2022-08-25T12:49:52.674Z,393.75
2022-08-25T12:50:52.679Z,399.38
2022-08-25T12:51:52.667Z,405.00
2022-08-25T12:52:52.653Z,405.00
2022-08-25T12:53:52.662Z,405.00
2022-08-25T12:54:52.642Z,410.63
2022-08-25T12:55:52.629Z,410.63
2022-08-25T12:56:52.632Z,416.25
2022-08-25T12:57:52.616Z,421.88
2022-08-25T12:59:00.881Z,421.88
2022-08-25T12:59:52.616Z,421.88
2022-08-25T13:00:53.180Z,427.50
2022-08-25T13:01:52.732Z,433.13
2022-08-25T13:02:52.668Z,444.38
2022-08-25T13:03:52.597Z,455.63
2022-08-25T13:04:52.572Z,478.13
2022-08-25T13:05:52.564Z,495.00
2022-08-25T13:06:52.560Z,523.13
2022-08-25T13:07:52.562Z,579.38
2022-08-25T13:08:52.569Z,663.75
2022-08-25T13:09:52.538Z,798.75
2022-08-25T13:10:52.535Z,1023.75
2022-08-25T13:11:52.564Z,1248.75
2022-08-25T13:12:52.521Z,1473.75
2022-08-25T13:13:52.537Z,1738.13
2022-08-25T13:14:52.510Z,1996.88
2022-08-25T13:15:54.827Z,2362.50
2022-08-25T13:16:52.543Z,2829.38
2022-08-25T13:17:52.842Z,2958.75
2022-08-25T13:18:52.508Z,3009.38
2022-08-25T13:19:52.486Z,3330.00
2022-08-25T13:20:52.550Z,3251.25
2022-08-25T13:21:52.465Z,3206.25
2022-08-25T13:22:57.235Z,3206.25
2022-08-25T13:23:54.013Z,3031.88
2022-08-25T13:24:52.493Z,2947.50
2022-08-25T13:25:52.442Z,2840.63
2022-08-25T13:26:52.447Z,2829.38
2022-08-25T13:27:52.440Z,3155.63
2022-08-25T13:28:52.450Z,3088.13
2022-08-25T13:29:52.729Z,2919.38
2022-08-25T13:30:52.427Z,2868.75
2022-08-25T13:31:52.446Z,2846.25
2022-08-25T13:32:52.406Z,2919.38
2022-08-25T13:33:52.420Z,2902.50
2022-08-25T13:34:52.469Z,2745.00
2022-08-25T13:35:52.440Z,2750.63
2022-08-25T13:36:54.235Z,3048.75
2022-08-25T13:37:52.379Z,3268.13
2022-08-25T13:38:52.395Z,3116.25
2022-08-25T13:39:56.430Z,3217.50
2022-08-25T13:40:52.406Z,3268.13
2022-08-25T13:41:54.550Z,3037.50
2022-08-25T13:42:55.880Z,3060.00
2022-08-25T13:43:52.368Z,2835.00
2022-08-25T13:44:53.941Z,3116.25
2022-08-25T13:45:52.385Z,3138.75
2022-08-25T13:46:52.347Z,2941.88
2022-08-25T13:47:55.911Z,2992.50
2022-08-25T13:48:52.350Z,3105.00
2022-08-25T13:49:52.324Z,3150.00
2022-08-25T13:50:52.952Z,3093.75
2022-08-25T13:51:52.314Z,3189.38
2022-08-25T13:52:52.373Z,3234.38
2022-08-25T13:53:52.327Z,3251.25
2022-08-25T13:54:52.304Z,3330.00
2022-08-25T13:55:52.370Z,3369.38
2022-08-25T13:56:52.305Z,3363.75
2022-08-25T13:57:52.292Z,3330.00
2022-08-25T13:58:52.312Z,3009.38
2022-08-25T13:59:52.287Z,2559.38
2022-08-25T14:00:53.686Z,2480.63
2022-08-25T14:01:52.339Z,2565.00
2022-08-25T14:02:52.379Z,2536.88
2022-08-25T14:03:52.291Z,2328.75
2022-08-25T14:04:52.853Z,2233.13
2022-08-25T14:05:52.262Z,2115.00
2022-08-25T14:06:52.269Z,1963.13
2022-08-25T14:07:58.778Z,1991.25
2022-08-25T14:08:54.734Z,1968.75
2022-08-25T14:09:52.361Z,1873.13
2022-08-25T14:10:52.249Z,1845.00
2022-08-25T14:11:52.242Z,1833.75
2022-08-25T14:12:52.253Z,1816.88
2022-08-25T14:13:52.259Z,1822.50
2022-08-25T14:14:52.235Z,1828.13
2022-08-25T14:15:52.239Z,1895.63
2022-08-25T14:16:52.373Z,2008.13
2022-08-25T14:17:52.232Z,1968.75
2022-08-25T14:18:52.242Z,1968.75
2022-08-25T14:19:52.230Z,2058.75
2022-08-25T14:20:52.230Z,1991.25
2022-08-25T14:21:52.892Z,2002.50
2022-08-25T14:22:52.327Z,2086.88
2022-08-25T14:23:52.233Z,2205.00
2022-08-25T14:24:52.221Z,2351.25
2022-08-25T14:25:52.213Z,2311.88
2022-08-25T14:26:54.485Z,2345.63
2022-08-25T14:28:08.302Z,2430.00
2022-08-25T14:28:52.213Z,2733.75
2022-08-25T14:29:52.974Z,2593.13
2022-08-25T14:30:52.209Z,2362.50
2022-08-25T14:31:52.249Z,2576.25
2022-08-25T14:32:52.248Z,2863.13
2022-08-25T14:33:52.213Z,2823.75
2022-08-25T14:34:52.189Z,2840.63
2022-08-25T14:35:52.197Z,2823.75
2022-08-25T14:36:52.196Z,2711.25
2022-08-25T14:37:52.248Z,2750.63
2022-08-25T14:38:54.541Z,2716.88
2022-08-25T14:39:52.236Z,2621.25
2022-08-25T14:40:52.234Z,2767.50
2022-08-25T14:41:53.899Z,2739.38
2022-08-25T14:42:52.188Z,2548.13
2022-08-25T14:43:52.202Z,2655.00
2022-08-25T14:44:52.186Z,2700.00
2022-08-25T14:45:52.214Z,2683.13
2022-08-25T14:46:52.183Z,2722.50
2022-08-25T14:47:52.186Z,2531.25
2022-08-25T14:48:52.197Z,2469.38
2022-08-25T14:49:52.181Z,2632.50
2022-08-25T14:50:52.172Z,2694.38
2022-08-25T14:51:52.181Z,2553.75
2022-08-25T14:52:52.302Z,2520.00
2022-08-25T14:53:52.189Z,2531.25
2022-08-25T14:54:52.166Z,2649.38
2022-08-25T14:55:52.167Z,2581.88
2022-08-25T14:56:52.174Z,2514.38
2022-08-25T14:57:52.163Z,2643.75
2022-08-25T14:58:54.292Z,2773.13
2022-08-25T14:59:52.163Z,2536.88
2022-08-25T15:00:52.210Z,2491.88
2022-08-25T15:01:52.163Z,2570.63
2022-08-25T15:02:52.162Z,2525.63
2022-08-25T15:03:52.205Z,2486.25
2022-08-25T15:04:52.169Z,2446.88
2022-08-25T15:05:52.164Z,2446.88
2022-08-25T15:06:52.164Z,2452.50
2022-08-25T15:07:52.164Z,2508.75
2022-08-25T15:08:52.177Z,2626.88
2022-08-25T15:09:52.194Z,2446.88
2022-08-25T15:10:52.165Z,2345.63
2022-08-25T15:11:52.167Z,2576.25
2022-08-25T15:12:53.878Z,2677.50
2022-08-25T15:13:52.188Z,2480.63
2022-08-25T15:14:52.165Z,2514.38
2022-08-25T15:15:53.225Z,2401.88
2022-08-25T15:16:52.344Z,2255.63
2022-08-25T15:17:52.174Z,2407.50
2022-08-25T15:18:52.186Z,2475.00
2022-08-25T15:19:52.172Z,2334.38
2022-08-25T15:20:52.179Z,2261.25
2022-08-25T15:21:52.186Z,2255.63
2022-08-25T15:22:52.176Z,2345.63
2022-08-25T15:23:56.222Z,2379.38
2022-08-25T15:24:52.178Z,2430.00
2022-08-25T15:25:52.739Z,2503.13
2022-08-25T15:27:52.183Z,2621.25
2022-08-25T15:28:52.206Z,2610.00
2022-08-25T15:29:52.196Z,2413.13
2022-08-25T15:30:52.187Z,2295.00
2022-08-25T15:31:52.257Z,2491.88
2022-08-25T15:32:52.201Z,2593.13
2022-08-25T15:33:52.206Z,2486.25
2022-08-25T15:34:52.203Z,2430.00
2022-08-25T15:35:52.197Z,2278.13
2022-08-25T15:36:52.206Z,2317.50
2022-08-25T15:37:52.209Z,2396.25
2022-08-25T15:38:52.223Z,2289.38
2022-08-25T15:39:52.290Z,2176.88
2022-08-25T15:40:52.212Z,2137.50
2022-08-25T15:41:52.293Z,2081.25
2022-08-25T15:42:52.209Z,2193.75
2022-08-25T15:43:52.231Z,1648.13
2022-08-25T15:44:53.095Z,765.00
2022-08-25T15:45:52.212Z,450.00
2022-08-25T15:46:52.248Z,399.38
2022-08-25T15:47:54.136Z,624.38
2022-08-25T15:48:52.248Z,1378.13
2022-08-25T15:55:03.809Z,2216.25
2022-08-25T15:56:06.300Z,2216.25
2022-08-25T15:57:03.790Z,2306.25
2022-08-25T15:58:03.800Z,2351.25
2022-08-25T15:59:03.802Z,2272.50
2022-08-25T16:00:03.789Z,2188.13
2022-08-25T16:01:03.849Z,2064.38
2022-08-25T16:02:04.378Z,2058.75
2022-08-25T16:03:03.797Z,2148.75
2022-08-25T16:04:03.799Z,2244.38
2022-08-25T16:05:03.786Z,2261.25
2022-08-25T16:06:03.797Z,2154.38
2022-08-25T16:07:03.788Z,2081.25
2022-08-25T16:08:03.795Z,2036.25
2022-08-25T16:09:03.803Z,1968.75
2022-08-25T16:10:03.788Z,1957.50
2022-08-25T16:11:03.813Z,2019.38
2022-08-25T16:12:06.765Z,2013.75
2022-08-25T16:13:03.802Z,2008.13
2022-08-25T16:14:03.812Z,1985.63
2022-08-25T16:15:03.802Z,1923.75
2022-08-25T16:16:03.909Z,1890.00
2022-08-25T16:17:03.789Z,1845.00
2022-08-25T16:18:04.830Z,1890.00
2022-08-25T16:19:03.805Z,1963.13
2022-08-25T16:20:03.801Z,1890.00
2022-08-25T16:21:03.788Z,1805.63
2022-08-25T16:22:03.792Z,1828.13
2022-08-25T16:23:04.112Z,1867.50
2022-08-25T16:24:07.533Z,1861.88
2022-08-25T16:25:03.803Z,1839.38
2022-08-25T16:26:03.794Z,1783.13
2022-08-25T16:27:11.224Z,1777.50
2022-08-25T16:28:03.794Z,1833.75
2022-08-25T16:29:03.820Z,1794.38
2022-08-25T16:30:03.799Z,1710.00
2022-08-25T16:31:03.838Z,1704.38
2022-08-25T16:32:03.808Z,1670.63
2022-08-25T16:33:03.797Z,1693.13
2022-08-25T16:34:03.807Z,1603.13
2022-08-25T16:35:03.806Z,1552.50
2022-08-25T16:36:03.793Z,1552.50
2022-08-25T16:37:03.800Z,1524.38
2022-08-25T16:38:03.926Z,1462.50
2022-08-25T16:39:03.812Z,1440.00
2022-08-25T16:40:03.825Z,1383.75
2022-08-25T16:41:08.229Z,1389.38
2022-08-25T16:42:03.786Z,1321.88
2022-08-25T16:43:03.793Z,1147.50
2022-08-25T16:44:03.804Z,1012.50
2022-08-25T16:45:05.162Z,877.50
2022-08-25T16:46:03.785Z,641.25
2022-08-25T16:47:03.825Z,534.38
2022-08-25T16:48:03.769Z,534.38
2022-08-25T16:49:03.781Z,663.75
2022-08-25T16:50:03.762Z,630.00
2022-08-25T16:51:03.761Z,652.50
2022-08-25T16:52:03.764Z,506.25
2022-08-25T16:53:03.761Z,365.63
2022-08-25T16:54:03.759Z,337.50
2022-08-25T16:55:03.756Z,337.50
2022-08-25T16:56:04.456Z,309.38
2022-08-25T17:02:42.773Z,253.13
